sensor_id;sensor_type;location;lat;lon;timestamp;P1;durP1;ratioP1;P2;durP2;ratioP2
20497;SDS011;10407;53.238;10.448;2023-04-10T00:00:00;109.87;;;26.03;;
20497;SDS011;10407;53.238;10.448;2023-04-10T00:02:28;108.37;;;23.80;;
20497;SDS011;10407;53.238;10.448;2023-04-10T00:04:56;107.57;;;24.03;;
20497;SDS011;10407;53.238;10.448;2023-04-10T00:07:24;110.87;;;26.20;;
20497;SDS011;10407;53.238;10.448;2023-04-10T00:09:52;115.40;;;24.53;;
20497;SDS011;10407;53.238;10.448;2023-04-10T00:12:20;113.40;;;23.33;;
20497;SDS011;10407;53.238;10.448;2023-04-10T00:14:47;111.20;;;25.77;;
20497;SDS011;10407;53.238;10.448;2023-04-10T00:17:15;111.07;;;25.60;;
20497;SDS011;10407;53.238;10.448;2023-04-10T00:19:42;106.90;;;24.90;;
20497;SDS011;10407;53.238;10.448;2023-04-10T00:22:10;102.27;;;22.50;;
20497;SDS011;10407;53.238;10.448;2023-04-10T00:24:37;109.53;;;25.47;;
20497;SDS011;10407;53.238;10.448;2023-04-10T00:27:05;109.90;;;25.43;;
20497;SDS011;10407;53.238;10.448;2023-04-10T00:29:32;106.23;;;23.50;;
20497;SDS011;10407;53.238;10.448;2023-04-10T00:32:00;105.97;;;24.20;;
20497;SDS011;10407;53.238;10.448;2023-04-10T00:34:27;108.50;;;25.87;;
20497;SDS011;10407;53.238;10.448;2023-04-10T00:36:55;104.77;;;23.53;;
20497;SDS011;10407;53.238;10.448;2023-04-10T00:39:24;108.17;;;24.23;;
20497;SDS011;10407;53.238;10.448;2023-04-10T00:41:51;107.10;;;23.20;;
20497;SDS011;10407;53.238;10.448;2023-04-10T00:44:19;106.77;;;22.90;;
20497;SDS011;10407;53.238;10.448;2023-04-10T00:46:46;103.80;;;23.77;;
20497;SDS011;10407;53.238;10.448;2023-04-10T00:49:14;109.00;;;25.30;;
20497;SDS011;10407;53.238;10.448;2023-04-10T00:51:43;105.63;;;22.80;;
20497;SDS011;10407;53.238;10.448;2023-04-10T00:54:11;110.87;;;24.50;;
20497;SDS011;10407;53.238;10.448;2023-04-10T00:56:39;111.00;;;25.70;;
20497;SDS011;10407;53.238;10.448;2023-04-10T00:59:07;105.57;;;22.10;;
20497;SDS011;10407;53.238;10.448;2023-04-10T01:01:34;106.87;;;23.23;;
20497;SDS011;10407;53.238;10.448;2023-04-10T01:04:02;108.23;;;23.23;;
20497;SDS011;10407;53.238;10.448;2023-04-10T01:11:52;105.70;;;22.83;;
20497;SDS011;10407;53.238;10.448;2023-04-10T01:22:31;108.30;;;23.63;;
20497;SDS011;10407;53.238;10.448;2023-04-10T01:28:10;104.63;;;22.13;;
20497;SDS011;10407;53.238;10.448;2023-04-10T01:30:50;104.77;;;21.50;;
20497;SDS011;10407;53.238;10.448;2023-04-10T01:33:20;105.87;;;22.30;;
20497;SDS011;10407;53.238;10.448;2023-04-10T01:35:51;105.40;;;22.23;;
20497;SDS011;10407;53.238;10.448;2023-04-10T01:38:21;105.20;;;21.23;;
20497;SDS011;10407;53.238;10.448;2023-04-10T01:40:52;111.20;;;24.37;;
20497;SDS011;10407;53.238;10.448;2023-04-10T01:43:21;106.20;;;23.40;;
20497;SDS011;10407;53.238;10.448;2023-04-10T01:45:51;101.87;;;21.70;;
20497;SDS011;10407;53.238;10.448;2023-04-10T01:48:20;108.23;;;23.20;;
20497;SDS011;10407;53.238;10.448;2023-04-10T01:50:47;106.17;;;21.20;;
20497;SDS011;10407;53.238;10.448;2023-04-10T01:53:16;107.27;;;23.13;;
20497;SDS011;10407;53.238;10.448;2023-04-10T01:55:44;102.10;;;21.23;;
20497;SDS011;10407;53.238;10.448;2023-04-10T01:58:12;116.40;;;24.27;;
20497;SDS011;10407;53.238;10.448;2023-04-10T02:00:40;103.87;;;21.33;;
20497;SDS011;10407;53.238;10.448;2023-04-10T02:03:09;109.60;;;23.93;;
20497;SDS011;10407;53.238;10.448;2023-04-10T02:06:24;107.17;;;23.87;;
20497;SDS011;10407;53.238;10.448;2023-04-10T02:08:11;104.30;;;22.20;;
20497;SDS011;10407;53.238;10.448;2023-04-10T02:10:44;108.57;;;22.90;;
20497;SDS011;10407;53.238;10.448;2023-04-10T02:13:26;104.23;;;22.37;;
20497;SDS011;10407;53.238;10.448;2023-04-10T02:15:54;104.77;;;22.13;;
20497;SDS011;10407;53.238;10.448;2023-04-10T02:18:24;106.57;;;24.20;;
20497;SDS011;10407;53.238;10.448;2023-04-10T02:20:53;109.97;;;24.40;;
20497;SDS011;10407;53.238;10.448;2023-04-10T02:23:21;106.20;;;23.03;;
20497;SDS011;10407;53.238;10.448;2023-04-10T02:25:49;111.37;;;24.50;;
20497;SDS011;10407;53.238;10.448;2023-04-10T02:28:16;108.20;;;23.87;;
20497;SDS011;10407;53.238;10.448;2023-04-10T02:30:44;108.30;;;22.90;;
20497;SDS011;10407;53.238;10.448;2023-04-10T02:33:12;112.03;;;26.33;;
20497;SDS011;10407;53.238;10.448;2023-04-10T02:35:39;109.50;;;23.83;;
20497;SDS011;10407;53.238;10.448;2023-04-10T02:38:07;111.17;;;26.40;;
20497;SDS011;10407;53.238;10.448;2023-04-10T02:40:34;107.73;;;23.37;;
20497;SDS011;10407;53.238;10.448;2023-04-10T02:43:02;109.57;;;26.87;;
20497;SDS011;10407;53.238;10.448;2023-04-10T02:45:29;107.50;;;23.37;;
20497;SDS011;10407;53.238;10.448;2023-04-10T02:47:58;113.10;;;26.23;;
20497;SDS011;10407;53.238;10.448;2023-04-10T02:50:25;111.60;;;25.57;;
20497;SDS011;10407;53.238;10.448;2023-04-10T02:52:55;105.93;;;23.70;;
20497;SDS011;10407;53.238;10.448;2023-04-10T02:55:22;106.73;;;23.07;;
20497;SDS011;10407;53.238;10.448;2023-04-10T02:57:50;111.57;;;25.10;;
20497;SDS011;10407;53.238;10.448;2023-04-10T03:00:17;108.33;;;25.07;;
20497;SDS011;10407;53.238;10.448;2023-04-10T03:02:45;110.60;;;25.07;;
20497;SDS011;10407;53.238;10.448;2023-04-10T03:05:13;108.97;;;24.83;;
20497;SDS011;10407;53.238;10.448;2023-04-10T03:07:40;109.70;;;26.80;;
20497;SDS011;10407;53.238;10.448;2023-04-10T03:10:08;108.90;;;23.60;;
20497;SDS011;10407;53.238;10.448;2023-04-10T03:12:36;114.90;;;26.63;;
20497;SDS011;10407;53.238;10.448;2023-04-10T03:15:03;112.57;;;23.97;;
20497;SDS011;10407;53.238;10.448;2023-04-10T03:17:32;110.87;;;24.40;;
20497;SDS011;10407;53.238;10.448;2023-04-10T03:19:59;111.33;;;26.93;;
20497;SDS011;10407;53.238;10.448;2023-04-10T03:22:27;114.43;;;24.27;;
20497;SDS011;10407;53.238;10.448;2023-04-10T03:24:56;110.03;;;23.97;;
20497;SDS011;10407;53.238;10.448;2023-04-10T03:27:23;111.63;;;25.97;;
20497;SDS011;10407;53.238;10.448;2023-04-10T03:29:51;113.27;;;25.50;;
20497;SDS011;10407;53.238;10.448;2023-04-10T03:32:19;107.73;;;23.93;;
20497;SDS011;10407;53.238;10.448;2023-04-10T03:34:46;106.07;;;25.20;;
20497;SDS011;10407;53.238;10.448;2023-04-10T03:37:14;110.57;;;25.10;;
20497;SDS011;10407;53.238;10.448;2023-04-10T03:39:41;105.60;;;24.70;;
20497;SDS011;10407;53.238;10.448;2023-04-10T03:42:09;112.33;;;25.37;;
20497;SDS011;10407;53.238;10.448;2023-04-10T03:44:36;107.80;;;23.17;;
20497;SDS011;10407;53.238;10.448;2023-04-10T03:47:04;112.40;;;25.33;;
20497;SDS011;10407;53.238;10.448;2023-04-10T03:49:31;112.03;;;26.20;;
20497;SDS011;10407;53.238;10.448;2023-04-10T03:51:59;110.47;;;23.73;;
20497;SDS011;10407;53.238;10.448;2023-04-10T03:54:26;108.27;;;23.83;;
20497;SDS011;10407;53.238;10.448;2023-04-10T03:56:54;113.27;;;25.40;;
20497;SDS011;10407;53.238;10.448;2023-04-10T03:59:21;111.43;;;26.17;;
20497;SDS011;10407;53.238;10.448;2023-04-10T04:01:49;107.60;;;23.87;;
20497;SDS011;10407;53.238;10.448;2023-04-10T04:04:17;109.10;;;24.80;;
20497;SDS011;10407;53.238;10.448;2023-04-10T04:06:45;109.67;;;24.10;;
20497;SDS011;10407;53.238;10.448;2023-04-10T04:09:13;107.20;;;23.10;;
20497;SDS011;10407;53.238;10.448;2023-04-10T04:11:41;110.90;;;25.13;;
20497;SDS011;10407;53.238;10.448;2023-04-10T04:14:08;108.67;;;23.97;;
20497;SDS011;10407;53.238;10.448;2023-04-10T04:16:36;113.63;;;26.17;;
20497;SDS011;10407;53.238;10.448;2023-04-10T04:19:04;109.93;;;25.83;;
20497;SDS011;10407;53.238;10.448;2023-04-10T04:21:31;117.27;;;24.27;;
20497;SDS011;10407;53.238;10.448;2023-04-10T04:23:59;112.33;;;23.93;;
20497;SDS011;10407;53.238;10.448;2023-04-10T04:26:26;109.80;;;25.20;;
20497;SDS011;10407;53.238;10.448;2023-04-10T04:28:53;108.87;;;23.70;;
20497;SDS011;10407;53.238;10.448;2023-04-10T04:31:21;111.80;;;24.17;;
20497;SDS011;10407;53.238;10.448;2023-04-10T04:33:49;108.90;;;24.47;;
20497;SDS011;10407;53.238;10.448;2023-04-10T04:36:17;110.80;;;24.80;;
20497;SDS011;10407;53.238;10.448;2023-04-10T04:38:44;116.53;;;26.63;;
20497;SDS011;10407;53.238;10.448;2023-04-10T04:41:12;113.20;;;26.63;;
20497;SDS011;10407;53.238;10.448;2023-04-10T04:43:40;114.60;;;26.47;;
20497;SDS011;10407;53.238;10.448;2023-04-10T04:46:08;107.87;;;26.10;;
20497;SDS011;10407;53.238;10.448;2023-04-10T04:48:35;110.53;;;25.03;;
20497;SDS011;10407;53.238;10.448;2023-04-10T04:51:05;114.43;;;25.27;;
20497;SDS011;10407;53.238;10.448;2023-04-10T04:53:32;115.07;;;24.33;;
20497;SDS011;10407;53.238;10.448;2023-04-10T04:56:00;119.47;;;25.13;;
20497;SDS011;10407;53.238;10.448;2023-04-10T04:58:28;111.07;;;23.97;;
20497;SDS011;10407;53.238;10.448;2023-04-10T05:00:55;107.63;;;24.23;;
20497;SDS011;10407;53.238;10.448;2023-04-10T05:03:23;112.00;;;22.80;;
20497;SDS011;10407;53.238;10.448;2023-04-10T05:05:51;111.63;;;25.50;;
20497;SDS011;10407;53.238;10.448;2023-04-10T05:08:18;105.93;;;23.40;;
20497;SDS011;10407;53.238;10.448;2023-04-10T05:10:46;110.20;;;25.83;;
20497;SDS011;10407;53.238;10.448;2023-04-10T05:13:14;106.80;;;23.97;;
20497;SDS011;10407;53.238;10.448;2023-04-10T05:15:42;108.67;;;24.60;;
20497;SDS011;10407;53.238;10.448;2023-04-10T05:18:10;110.10;;;25.03;;
20497;SDS011;10407;53.238;10.448;2023-04-10T05:20:38;111.30;;;25.10;;
20497;SDS011;10407;53.238;10.448;2023-04-10T05:23:06;100.70;;;22.77;;
20497;SDS011;10407;53.238;10.448;2023-04-10T05:25:33;108.97;;;24.43;;
20497;SDS011;10407;53.238;10.448;2023-04-10T05:28:01;103.77;;;22.60;;
20497;SDS011;10407;53.238;10.448;2023-04-10T05:30:28;106.80;;;23.60;;
20497;SDS011;10407;53.238;10.448;2023-04-10T05:32:56;106.00;;;22.57;;
20497;SDS011;10407;53.238;10.448;2023-04-10T05:35:24;111.03;;;23.90;;
20497;SDS011;10407;53.238;10.448;2023-04-10T05:37:52;101.20;;;21.90;;
20497;SDS011;10407;53.238;10.448;2023-04-10T05:40:19;106.63;;;23.17;;
20497;SDS011;10407;53.238;10.448;2023-04-10T05:42:47;105.27;;;23.90;;
20497;SDS011;10407;53.238;10.448;2023-04-10T05:45:14;101.57;;;23.37;;
20497;SDS011;10407;53.238;10.448;2023-04-10T05:47:43;106.70;;;24.60;;
20497;SDS011;10407;53.238;10.448;2023-04-10T05:50:10;101.10;;;21.50;;
20497;SDS011;10407;53.238;10.448;2023-04-10T05:52:38;103.57;;;21.93;;
20497;SDS011;10407;53.238;10.448;2023-04-10T05:55:06;104.47;;;21.70;;
20497;SDS011;10407;53.238;10.448;2023-04-10T05:57:34;105.73;;;21.77;;
20497;SDS011;10407;53.238;10.448;2023-04-10T06:00:02;100.20;;;21.40;;
20497;SDS011;10407;53.238;10.448;2023-04-10T06:02:31;106.37;;;22.83;;
20497;SDS011;10407;53.238;10.448;2023-04-10T06:04:58;102.40;;;21.43;;
20497;SDS011;10407;53.238;10.448;2023-04-10T06:07:26;103.30;;;21.83;;
20497;SDS011;10407;53.238;10.448;2023-04-10T06:09:53;103.20;;;21.80;;
20497;SDS011;10407;53.238;10.448;2023-04-10T06:12:21;105.20;;;22.93;;
20497;SDS011;10407;53.238;10.448;2023-04-10T06:14:48;102.23;;;22.97;;
20497;SDS011;10407;53.238;10.448;2023-04-10T06:17:16;100.20;;;21.50;;
20497;SDS011;10407;53.238;10.448;2023-04-10T06:19:45;101.87;;;22.13;;
20497;SDS011;10407;53.238;10.448;2023-04-10T06:22:12;102.07;;;22.97;;
20497;SDS011;10407;53.238;10.448;2023-04-10T06:24:40;100.47;;;22.20;;
20497;SDS011;10407;53.238;10.448;2023-04-10T06:27:07;103.50;;;22.00;;
20497;SDS011;10407;53.238;10.448;2023-04-10T06:29:35;100.93;;;21.90;;
20497;SDS011;10407;53.238;10.448;2023-04-10T06:32:02;102.03;;;22.87;;
20497;SDS011;10407;53.238;10.448;2023-04-10T06:34:30;102.20;;;21.33;;
20497;SDS011;10407;53.238;10.448;2023-04-10T06:36:58;97.77;;;21.10;;
20497;SDS011;10407;53.238;10.448;2023-04-10T06:39:25;106.60;;;23.17;;
20497;SDS011;10407;53.238;10.448;2023-04-10T06:41:53;101.20;;;21.03;;
20497;SDS011;10407;53.238;10.448;2023-04-10T06:44:20;104.07;;;22.37;;
20497;SDS011;10407;53.238;10.448;2023-04-10T06:46:48;100.77;;;22.07;;
20497;SDS011;10407;53.238;10.448;2023-04-10T06:49:16;104.03;;;23.50;;
20497;SDS011;10407;53.238;10.448;2023-04-10T06:51:43;100.37;;;21.67;;
20497;SDS011;10407;53.238;10.448;2023-04-10T06:54:13;108.80;;;25.80;;
20497;SDS011;10407;53.238;10.448;2023-04-10T06:56:40;99.00;;;21.30;;
20497;SDS011;10407;53.238;10.448;2023-04-10T06:59:08;104.10;;;24.03;;
20497;SDS011;10407;53.238;10.448;2023-04-10T07:01:35;102.73;;;22.20;;
20497;SDS011;10407;53.238;10.448;2023-04-10T07:04:05;99.47;;;20.30;;
20497;SDS011;10407;53.238;10.448;2023-04-10T07:06:32;105.27;;;22.83;;
20497;SDS011;10407;53.238;10.448;2023-04-10T07:08:59;100.10;;;21.10;;
20497;SDS011;10407;53.238;10.448;2023-04-10T07:11:27;98.80;;;20.23;;
20497;SDS011;10407;53.238;10.448;2023-04-10T07:13:55;103.13;;;21.17;;
20497;SDS011;10407;53.238;10.448;2023-04-10T07:16:23;106.07;;;22.00;;
20497;SDS011;10407;53.238;10.448;2023-04-10T07:18:50;101.60;;;21.50;;
20497;SDS011;10407;53.238;10.448;2023-04-10T07:21:20;100.30;;;20.13;;
20497;SDS011;10407;53.238;10.448;2023-04-10T07:23:47;99.20;;;21.13;;
20497;SDS011;10407;53.238;10.448;2023-04-10T07:26:15;97.50;;;19.87;;
20497;SDS011;10407;53.238;10.448;2023-04-10T07:28:43;98.40;;;22.03;;
20497;SDS011;10407;53.238;10.448;2023-04-10T07:31:10;97.57;;;20.60;;
20497;SDS011;10407;53.238;10.448;2023-04-10T07:33:38;99.03;;;20.53;;
20497;SDS011;10407;53.238;10.448;2023-04-10T07:36:07;95.03;;;19.67;;
20497;SDS011;10407;53.238;10.448;2023-04-10T07:38:34;97.00;;;19.60;;
20497;SDS011;10407;53.238;10.448;2023-04-10T07:41:03;94.47;;;19.33;;
20497;SDS011;10407;53.238;10.448;2023-04-10T07:43:31;95.97;;;18.90;;
20497;SDS011;10407;53.238;10.448;2023-04-10T07:45:59;98.53;;;20.57;;
20497;SDS011;10407;53.238;10.448;2023-04-10T07:48:26;94.50;;;18.07;;
20497;SDS011;10407;53.238;10.448;2023-04-10T07:50:54;96.10;;;19.20;;
20497;SDS011;10407;53.238;10.448;2023-04-10T07:53:21;95.40;;;18.43;;
20497;SDS011;10407;53.238;10.448;2023-04-10T07:55:49;94.20;;;17.90;;
20497;SDS011;10407;53.238;10.448;2023-04-10T07:58:18;97.80;;;20.23;;
20497;SDS011;10407;53.238;10.448;2023-04-10T08:00:45;98.43;;;18.57;;
20497;SDS011;10407;53.238;10.448;2023-04-10T08:03:13;92.87;;;17.43;;
20497;SDS011;10407;53.238;10.448;2023-04-10T08:05:41;95.33;;;18.43;;
20497;SDS011;10407;53.238;10.448;2023-04-10T08:08:09;94.37;;;18.10;;
20497;SDS011;10407;53.238;10.448;2023-04-10T08:10:37;90.77;;;16.37;;
20497;SDS011;10407;53.238;10.448;2023-04-10T08:13:04;93.17;;;16.97;;
20497;SDS011;10407;53.238;10.448;2023-04-10T08:15:32;93.37;;;17.10;;
20497;SDS011;10407;53.238;10.448;2023-04-10T08:18:00;90.47;;;16.60;;
20497;SDS011;10407;53.238;10.448;2023-04-10T08:20:28;93.00;;;18.00;;
20497;SDS011;10407;53.238;10.448;2023-04-10T08:22:57;94.03;;;17.00;;
20497;SDS011;10407;53.238;10.448;2023-04-10T08:25:24;92.60;;;17.40;;
20497;SDS011;10407;53.238;10.448;2023-04-10T08:27:52;91.77;;;17.37;;
20497;SDS011;10407;53.238;10.448;2023-04-10T08:30:20;91.77;;;16.67;;
20497;SDS011;10407;53.238;10.448;2023-04-10T08:32:47;91.27;;;17.17;;
20497;SDS011;10407;53.238;10.448;2023-04-10T08:35:15;89.87;;;16.27;;
20497;SDS011;10407;53.238;10.448;2023-04-10T08:37:42;94.13;;;17.37;;
20497;SDS011;10407;53.238;10.448;2023-04-10T08:40:15;92.90;;;16.23;;
20497;SDS011;10407;53.238;10.448;2023-04-10T08:42:42;89.97;;;16.40;;
20497;SDS011;10407;53.238;10.448;2023-04-10T08:45:10;93.40;;;16.93;;
20497;SDS011;10407;53.238;10.448;2023-04-10T08:47:38;87.57;;;14.70;;
20497;SDS011;10407;53.238;10.448;2023-04-10T08:50:09;91.07;;;15.70;;
20497;SDS011;10407;53.238;10.448;2023-04-10T08:52:40;89.93;;;15.77;;
20497;SDS011;10407;53.238;10.448;2023-04-10T08:55:09;88.70;;;15.33;;
20497;SDS011;10407;53.238;10.448;2023-04-10T08:57:40;89.57;;;15.53;;
20497;SDS011;10407;53.238;10.448;2023-04-10T09:00:10;86.77;;;13.20;;
20497;SDS011;10407;53.238;10.448;2023-04-10T09:02:38;86.27;;;14.07;;
20497;SDS011;10407;53.238;10.448;2023-04-10T09:05:28;93.05;;;15.95;;
20497;SDS011;10407;53.238;10.448;2023-04-10T09:07:56;90.30;;;17.20;;
20497;SDS011;10407;53.238;10.448;2023-04-10T09:10:23;88.23;;;14.50;;
20497;SDS011;10407;53.238;10.448;2023-04-10T09:12:51;90.30;;;15.70;;
20497;SDS011;10407;53.238;10.448;2023-04-10T09:15:18;87.70;;;14.87;;
20497;SDS011;10407;53.238;10.448;2023-04-10T09:18:02;91.07;;;16.27;;
20497;SDS011;10407;53.238;10.448;2023-04-10T09:20:30;89.50;;;14.93;;
20497;SDS011;10407;53.238;10.448;2023-04-10T09:22:58;88.03;;;13.73;;
20497;SDS011;10407;53.238;10.448;2023-04-10T09:25:32;87.87;;;15.50;;
20497;SDS011;10407;53.238;10.448;2023-04-10T09:28:01;91.37;;;15.53;;
20497;SDS011;10407;53.238;10.448;2023-04-10T09:30:40;85.50;;;14.00;;
20497;SDS011;10407;53.238;10.448;2023-04-10T09:33:21;88.27;;;14.50;;
20497;SDS011;10407;53.238;10.448;2023-04-10T09:35:53;84.70;;;12.77;;
20497;SDS011;10407;53.238;10.448;2023-04-10T09:38:25;83.67;;;12.20;;
20497;SDS011;10407;53.238;10.448;2023-04-10T09:40:53;85.37;;;13.53;;
20497;SDS011;10407;53.238;10.448;2023-04-10T09:43:24;85.20;;;12.90;;
20497;SDS011;10407;53.238;10.448;2023-04-10T09:45:53;84.77;;;12.77;;
20497;SDS011;10407;53.238;10.448;2023-04-10T09:48:25;87.07;;;12.10;;
20497;SDS011;10407;53.238;10.448;2023-04-10T09:50:53;86.97;;;12.80;;
20497;SDS011;10407;53.238;10.448;2023-04-10T09:53:21;85.60;;;13.80;;
20497;SDS011;10407;53.238;10.448;2023-04-10T09:55:49;85.70;;;12.70;;
20497;SDS011;10407;53.238;10.448;2023-04-10T10:01:03;86.20;;;12.70;;
20497;SDS011;10407;53.238;10.448;2023-04-10T10:03:31;86.10;;;12.90;;
20497;SDS011;10407;53.238;10.448;2023-04-10T10:05:59;84.37;;;12.60;;
20497;SDS011;10407;53.238;10.448;2023-04-10T10:08:27;82.17;;;12.27;;
20497;SDS011;10407;53.238;10.448;2023-04-10T10:10:56;83.80;;;12.00;;
20497;SDS011;10407;53.238;10.448;2023-04-10T10:13:37;83.07;;;11.97;;
20497;SDS011;10407;53.238;10.448;2023-04-10T10:18:58;82.63;;;11.70;;
20497;SDS011;10407;53.238;10.448;2023-04-10T10:21:33;79.60;;;9.63;;
20497;SDS011;10407;53.238;10.448;2023-04-10T10:24:02;84.57;;;11.33;;
20497;SDS011;10407;53.238;10.448;2023-04-10T10:26:32;82.37;;;11.10;;
20497;SDS011;10407;53.238;10.448;2023-04-10T10:29:03;84.77;;;11.93;;
20497;SDS011;10407;53.238;10.448;2023-04-10T10:31:34;82.10;;;11.87;;
20497;SDS011;10407;53.238;10.448;2023-04-10T10:34:03;81.97;;;10.40;;
20497;SDS011;10407;53.238;10.448;2023-04-10T10:36:33;82.17;;;10.60;;
20497;SDS011;10407;53.238;10.448;2023-04-10T10:39:12;82.80;;;11.20;;
20497;SDS011;10407;53.238;10.448;2023-04-10T10:41:55;80.30;;;10.20;;
20497;SDS011;10407;53.238;10.448;2023-04-10T10:44:36;82.57;;;10.10;;
20497;SDS011;10407;53.238;10.448;2023-04-10T10:47:05;80.60;;;9.73;;
20497;SDS011;10407;53.238;10.448;2023-04-10T10:49:55;82.47;;;10.40;;
20497;SDS011;10407;53.238;10.448;2023-04-10T10:52:36;79.10;;;9.50;;
20497;SDS011;10407;53.238;10.448;2023-04-10T10:57:53;79.87;;;9.60;;
20497;SDS011;10407;53.238;10.448;2023-04-10T11:00:23;81.13;;;9.37;;
20497;SDS011;10407;53.238;10.448;2023-04-10T11:11:06;78.30;;;9.07;;
20497;SDS011;10407;53.238;10.448;2023-04-10T11:13:38;78.90;;;8.33;;
20497;SDS011;10407;53.238;10.448;2023-04-10T11:16:07;78.67;;;8.97;;
20497;SDS011;10407;53.238;10.448;2023-04-10T11:21:16;78.43;;;8.13;;
20497;SDS011;10407;53.238;10.448;2023-04-10T11:29:04;78.00;;;8.30;;
20497;SDS011;10407;53.238;10.448;2023-04-10T11:31:40;77.23;;;7.13;;
20497;SDS011;10407;53.238;10.448;2023-04-10T11:34:09;77.90;;;7.60;;
20497;SDS011;10407;53.238;10.448;2023-04-10T11:36:38;77.83;;;7.97;;
20497;SDS011;10407;53.238;10.448;2023-04-10T11:39:13;77.60;;;8.00;;
20497;SDS011;10407;53.238;10.448;2023-04-10T11:41:39;75.90;;;7.00;;
20497;SDS011;10407;53.238;10.448;2023-04-10T11:44:12;77.67;;;7.27;;
20497;SDS011;10407;53.238;10.448;2023-04-10T11:46:46;76.60;;;6.73;;
20497;SDS011;10407;53.238;10.448;2023-04-10T11:49:16;83.40;;;7.00;;
20497;SDS011;10407;53.238;10.448;2023-04-10T11:51:48;77.80;;;7.00;;
20497;SDS011;10407;53.238;10.448;2023-04-10T11:54:23;78.30;;;7.73;;
20497;SDS011;10407;53.238;10.448;2023-04-10T11:56:59;80.17;;;8.23;;
20497;SDS011;10407;53.238;10.448;2023-04-10T11:59:31;77.60;;;8.07;;
20497;SDS011;10407;53.238;10.448;2023-04-10T12:02:07;78.37;;;8.27;;
20497;SDS011;10407;53.238;10.448;2023-04-10T12:04:36;81.27;;;6.70;;
20497;SDS011;10407;53.238;10.448;2023-04-10T12:07:04;77.33;;;8.30;;
20497;SDS011;10407;53.238;10.448;2023-04-10T12:09:32;78.40;;;8.70;;
20497;SDS011;10407;53.238;10.448;2023-04-10T12:12:00;82.10;;;7.90;;
20497;SDS011;10407;53.238;10.448;2023-04-10T12:17:00;77.80;;;6.90;;
20497;SDS011;10407;53.238;10.448;2023-04-10T12:19:29;76.10;;;7.20;;
20497;SDS011;10407;53.238;10.448;2023-04-10T12:21:58;78.80;;;7.97;;
20497;SDS011;10407;53.238;10.448;2023-04-10T12:29:46;77.40;;;7.47;;
20497;SDS011;10407;53.238;10.448;2023-04-10T12:32:15;82.20;;;7.47;;
20497;SDS011;10407;53.238;10.448;2023-04-10T12:34:49;77.97;;;8.40;;
20497;SDS011;10407;53.238;10.448;2023-04-10T12:37:17;77.63;;;7.67;;
20497;SDS011;10407;53.238;10.448;2023-04-10T12:39:45;77.27;;;7.90;;
20497;SDS011;10407;53.238;10.448;2023-04-10T12:42:14;79.77;;;9.37;;
20497;SDS011;10407;53.238;10.448;2023-04-10T12:44:51;85.77;;;9.43;;
20497;SDS011;10407;53.238;10.448;2023-04-10T12:47:24;79.37;;;8.77;;
20497;SDS011;10407;53.238;10.448;2023-04-10T12:50:03;80.20;;;8.87;;
20497;SDS011;10407;53.238;10.448;2023-04-10T12:52:36;89.60;;;10.73;;
20497;SDS011;10407;53.238;10.448;2023-04-10T12:55:08;80.00;;;9.40;;
20497;SDS011;10407;53.238;10.448;2023-04-10T12:57:37;79.10;;;8.43;;
20497;SDS011;10407;53.238;10.448;2023-04-10T13:00:05;80.77;;;8.57;;
20497;SDS011;10407;53.238;10.448;2023-04-10T13:02:38;78.40;;;9.27;;
20497;SDS011;10407;53.238;10.448;2023-04-10T13:05:06;82.73;;;9.93;;
20497;SDS011;10407;53.238;10.448;2023-04-10T13:07:35;79.07;;;9.70;;
20497;SDS011;10407;53.238;10.448;2023-04-10T13:10:03;78.07;;;9.13;;
20497;SDS011;10407;53.238;10.448;2023-04-10T13:12:32;80.67;;;9.40;;
20497;SDS011;10407;53.238;10.448;2023-04-10T13:15:01;79.20;;;8.40;;
20497;SDS011;10407;53.238;10.448;2023-04-10T13:17:28;79.10;;;8.80;;
20497;SDS011;10407;53.238;10.448;2023-04-10T13:19:56;78.80;;;8.57;;
20497;SDS011;10407;53.238;10.448;2023-04-10T13:22:23;79.13;;;9.90;;
20497;SDS011;10407;53.238;10.448;2023-04-10T13:24:51;78.20;;;8.67;;
20497;SDS011;10407;53.238;10.448;2023-04-10T13:27:18;80.03;;;9.67;;
20497;SDS011;10407;53.238;10.448;2023-04-10T13:29:46;81.67;;;10.53;;
20497;SDS011;10407;53.238;10.448;2023-04-10T13:32:13;81.00;;;9.90;;
20497;SDS011;10407;53.238;10.448;2023-04-10T13:34:41;81.63;;;10.40;;
20497;SDS011;10407;53.238;10.448;2023-04-10T13:37:09;83.30;;;9.17;;
20497;SDS011;10407;53.238;10.448;2023-04-10T13:39:38;81.57;;;9.37;;
20497;SDS011;10407;53.238;10.448;2023-04-10T13:42:08;81.57;;;10.17;;
20497;SDS011;10407;53.238;10.448;2023-04-10T13:44:36;78.90;;;9.13;;
20497;SDS011;10407;53.238;10.448;2023-04-10T13:47:03;84.53;;;11.30;;
20497;SDS011;10407;53.238;10.448;2023-04-10T13:49:31;81.97;;;10.60;;
20497;SDS011;10407;53.238;10.448;2023-04-10T13:51:58;83.10;;;10.07;;
20497;SDS011;10407;53.238;10.448;2023-04-10T13:54:26;82.17;;;10.13;;
20497;SDS011;10407;53.238;10.448;2023-04-10T13:56:53;83.10;;;11.40;;
20497;SDS011;10407;53.238;10.448;2023-04-10T13:59:22;82.90;;;11.30;;
20497;SDS011;10407;53.238;10.448;2023-04-10T14:01:49;82.37;;;11.70;;
20497;SDS011;10407;53.238;10.448;2023-04-10T14:04:17;84.43;;;11.20;;
20497;SDS011;10407;53.238;10.448;2023-04-10T14:06:45;84.50;;;12.23;;
20497;SDS011;10407;53.238;10.448;2023-04-10T14:09:12;79.50;;;9.60;;
20497;SDS011;10407;53.238;10.448;2023-04-10T14:11:40;83.17;;;11.73;;
20497;SDS011;10407;53.238;10.448;2023-04-10T14:14:08;80.83;;;9.40;;
20497;SDS011;10407;53.238;10.448;2023-04-10T14:16:36;84.03;;;11.47;;
20497;SDS011;10407;53.238;10.448;2023-04-10T14:19:03;86.07;;;10.07;;
20497;SDS011;10407;53.238;10.448;2023-04-10T14:21:31;82.17;;;11.20;;
20497;SDS011;10407;53.238;10.448;2023-04-10T14:23:58;83.77;;;11.83;;
20497;SDS011;10407;53.238;10.448;2023-04-10T14:26:26;82.63;;;10.67;;
20497;SDS011;10407;53.238;10.448;2023-04-10T14:28:53;83.80;;;11.93;;
20497;SDS011;10407;53.238;10.448;2023-04-10T14:31:21;79.53;;;9.00;;
20497;SDS011;10407;53.238;10.448;2023-04-10T14:33:48;77.17;;;8.27;;
20497;SDS011;10407;53.238;10.448;2023-04-10T14:36:16;77.97;;;8.73;;
20497;SDS011;10407;53.238;10.448;2023-04-10T14:38:43;77.37;;;7.90;;
20497;SDS011;10407;53.238;10.448;2023-04-10T14:41:12;78.67;;;8.53;;
20497;SDS011;10407;53.238;10.448;2023-04-10T14:43:41;81.23;;;7.90;;
20497;SDS011;10407;53.238;10.448;2023-04-10T14:46:08;77.50;;;7.83;;
20497;SDS011;10407;53.238;10.448;2023-04-10T14:48:36;77.50;;;8.17;;
20497;SDS011;10407;53.238;10.448;2023-04-10T14:51:06;77.30;;;7.50;;
20497;SDS011;10407;53.238;10.448;2023-04-10T14:53:38;75.80;;;7.67;;
20497;SDS011;10407;53.238;10.448;2023-04-10T14:56:12;76.03;;;6.80;;
20497;SDS011;10407;53.238;10.448;2023-04-10T14:58:40;75.40;;;6.50;;
20497;SDS011;10407;53.238;10.448;2023-04-10T15:01:09;77.70;;;7.37;;
20497;SDS011;10407;53.238;10.448;2023-04-10T15:03:41;76.57;;;6.33;;